Time;durP1;ratioP1;P1;durP2;ratioP2;P2;SDS_P1;SDS_P2;PMS_P1;PMS_P2;Temp;Humidity;BMP_temperature;BMP_pressure;BME280_temperature;BME280_humidity;BME280_pressure;Samples;Min_cycle;Max_cycle;Signal;HPM_P1;HPM_P2
2021/04/18 00:01:26;;;;;;;2.30;1.08;;;15.20;56.40;;;;;;4972832;28;20504;-40
2021/04/18 00:03:52;;;;;;;3.00;1.70;;;15.20;56.40;;;;;;4976510;28;20022;-40
2021/04/18 00:06:18;;;;;;;1.98;1.20;;;15.20;56.50;;;;;;4976401;28;20037;-40
2021/04/18 00:08:47;;;;;;;0.85;0.82;;;15.10;56.50;;;;;;4976383;28;20059;-40
2021/04/18 00:11:13;;;;;;;3.08;1.15;;;15.20;56.70;;;;;;4976366;28;20023;-40
2021/04/18 00:13:39;;;;;;;2.20;1.20;;;15.00;57.10;;;;;;4975806;28;20050;-40
2021/04/18 00:16:05;;;;;;;3.67;1.45;;;15.20;56.60;;;;;;4976344;28;20111;-40
2021/04/18 00:18:31;;;;;;;2.38;1.33;;;15.20;56.30;;;;;;4958800;28;20509;-40
2021/04/18 00:20:56;;;;;;;3.30;1.70;;;15.10;56.40;;;;;;4976147;28;20023;-40
2021/04/18 00:23:22;;;;;;;2.17;1.52;;;15.20;56.60;;;;;;4975833;28;20035;-39
2021/04/18 00:25:48;;;;;;;2.15;1.30;;;15.20;56.70;;;;;;4976096;28;20034;-40
2021/04/18 00:28:13;;;;;;;1.92;1.20;;;15.70;56.90;;;;;;4976071;28;20484;-39
2021/04/18 00:30:39;;;;;;;3.40;1.25;;;15.20;56.70;;;;;;4976123;28;20018;-40
2021/04/18 00:33:05;;;;;;;1.98;1.27;;;15.10;56.60;;;;;;4975996;28;20479;-40
2021/04/18 00:35:31;;;;;;;5.22;1.40;;;15.10;56.60;;;;;;4975919;28;20483;-40
2021/04/18 00:37:56;;;;;;;1.83;1.13;;;15.10;56.70;;;;;;4975826;28;20049;-40
2021/04/18 00:40:24;;;;;;;2.67;1.20;;;15.10;56.70;;;;;;4975488;28;20025;-40
2021/04/18 00:42:50;;;;;;;3.08;1.45;;;15.10;56.70;;;;;;4975545;28;20033;-40
2021/04/18 00:45:18;;;;;;;1.75;1.15;;;15.50;56.90;;;;;;4975700;28;20029;-40
2021/04/18 00:47:46;;;;;;;2.42;1.40;;;15.10;56.50;;;;;;4975741;28;20031;-40
2021/04/18 00:50:16;;;;;;;1.65;1.10;;;15.00;56.80;;;;;;4975628;28;20019;-40
2021/04/18 00:52:42;;;;;;;1.58;1.23;;;;;;;;;;4975382;28;20065;-40
2021/04/18 00:55:08;;;;;;;2.42;1.58;;;15.10;54.70;;;;;;4975582;28;20051;-40
2021/04/18 00:57:34;;;;;;;3.25;1.25;;;15.10;56.40;;;;;;4975349;28;20034;-39
2021/04/18 01:00:03;;;;;;;3.10;1.20;;;15.40;56.80;;;;;;4975528;28;20054;-40
2021/04/18 01:02:29;;;;;;;2.95;1.40;;;15.40;56.80;;;;;;4975348;28;20038;-40
2021/04/18 01:04:54;;;;;;;3.42;1.00;;;15.30;56.60;;;;;;4975383;28;20481;-40
2021/04/18 01:07:20;;;;;;;1.73;1.17;;;15.00;56.50;;;;;;4975334;28;20018;-40
2021/04/18 01:09:46;;;;;;;2.72;1.55;;;15.00;56.60;;;;;;4975334;28;20046;-40
2021/04/18 01:12:11;;;;;;;3.22;1.40;;;15.30;56.80;;;;;;4974606;28;20037;-39
2021/04/18 01:14:37;;;;;;;2.72;1.30;;;15.10;84.60;;;;;;4974823;28;20046;-40
2021/04/18 01:17:03;;;;;;;2.00;1.00;;;15.00;56.60;;;;;;4975093;28;20045;-40
2021/04/18 01:19:29;;;;;;;2.55;1.33;;;15.00;56.60;;;;;;4974954;28;20023;-40
2021/04/18 01:21:54;;;;;;;2.13;1.30;;;15.00;56.50;;;;;;4975163;28;20062;-41
2021/04/18 01:24:20;;;;;;;2.40;1.25;;;14.90;57.10;;;;;;4975084;28;20470;-40
2021/04/18 01:26:46;;;;;;;2.83;1.60;;;14.90;56.40;;;;;;4974667;28;20027;-40
2021/04/18 01:29:12;;;;;;;4.10;1.25;;;14.90;56.80;;;;;;4974728;28;20110;-39
2021/04/18 01:31:37;;;;;;;3.50;1.45;;;14.90;56.40;;;;;;4974960;28;20034;-40
2021/04/18 01:34:03;;;;;;;3.67;1.38;;;14.90;56.40;;;;;;4974884;28;20082;-40
2021/04/18 01:36:30;;;;;;;2.38;1.30;;;14.70;56.30;;;;;;4974793;28;20038;-40
2021/04/18 01:38:56;;;;;;;2.90;1.40;;;15.10;60.30;;;;;;4957131;28;20055;-40
2021/04/18 01:41:21;;;;;;;4.28;1.58;;;15.30;56.50;;;;;;4974453;28;20030;-39
2021/04/18 01:43:47;;;;;;;3.20;1.60;;;14.90;56.30;;;;;;4974391;28;20074;-40
2021/04/18 01:46:13;;;;;;;2.42;1.23;;;14.90;56.30;;;;;;4974595;28;20042;-39
2021/04/18 01:48:39;;;;;;;2.65;1.40;;;14.90;56.40;;;;;;4974311;28;20041;-40
2021/04/18 01:51:09;;;;;;;2.75;1.50;;;14.90;56.40;;;;;;4974592;28;20102;-40
2021/04/18 01:53:36;;;;;;;4.25;1.55;;;14.90;55.10;;;;;;4974526;28;20051;-40
2021/04/18 01:56:02;;;;;;;3.75;1.40;;;14.90;56.40;;;;;;4974263;28;20035;-40
2021/04/18 01:58:28;;;;;;;3.28;1.40;;;14.90;56.40;;;;;;4974000;28;20478;-39
2021/04/18 02:00:54;;;;;;;4.35;1.52;;;15.50;57.00;;;;;;4974100;28;20019;-40
2021/04/18 02:03:20;;;;;;;2.65;1.40;;;14.90;56.70;;;;;;4974311;28;20386;-40
2021/04/18 02:05:45;;;;;;;2.03;1.40;;;14.90;56.80;;;;;;4956631;28;20019;-40
2021/04/18 02:08:11;;;;;;;3.08;1.48;;;14.80;56.60;;;;;;4974302;28;20030;-40
2021/04/18 02:10:37;;;;;;;3.25;1.27;;;14.80;56.70;;;;;;4973960;28;20031;-40
2021/04/18 02:13:03;;;;;;;3.42;1.67;;;14.80;56.60;;;;;;4973910;28;20024;-40
2021/04/18 02:15:29;;;;;;;2.30;1.38;;;14.80;56.20;;;;;;4974142;28;20027;-40
2021/04/18 02:17:55;;;;;;;3.47;1.27;;;14.90;56.40;;;;;;4973965;28;20030;-39
2021/04/18 02:20:21;;;;;;;3.42;1.50;;;14.80;56.40;;;;;;4974044;28;20371;-39
2021/04/18 02:22:46;;;;;;;3.95;1.40;;;14.80;56.50;;;;;;4974050;28;20118;-39
2021/04/18 02:25:13;;;;;;;2.83;1.70;;;14.80;56.40;;;;;;4972892;28;20023;-39
2021/04/18 02:27:40;;;;;;;3.00;1.35;;;14.80;56.30;;;;;;4973600;28;20041;-39
2021/04/18 02:30:06;;;;;;;2.25;1.20;;;14.80;56.40;;;;;;4973864;28;20146;-39
2021/04/18 02:32:32;;;;;;;2.00;1.05;;;14.80;55.90;;;;;;4973786;28;20019;-39
2021/04/18 02:34:58;;;;;;;3.38;1.52;;;14.70;56.30;;;;;;4973872;28;20422;-38
2021/04/18 02:37:24;;;;;;;2.28;1.27;;;14.70;56.10;;;;;;4973373;28;20045;-39
2021/04/18 02:39:49;;;;;;;2.70;1.25;;;15.50;56.60;;;;;;4973814;28;20026;-40
2021/04/18 02:42:15;;;;;;;3.30;1.48;;;14.70;56.20;;;;;;4973735;28;20019;-39
2021/04/18 02:44:41;;;;;;;3.80;1.55;;;14.70;56.20;;;;;;4973447;28;20031;-39
2021/04/18 02:47:06;;;;;;;3.63;1.63;;;14.80;56.20;;;;;;4973415;28;20105;-41
2021/04/18 02:49:32;;;;;;;3.22;1.38;;;;;;;;;;4973632;28;20039;-38
2021/04/18 02:51:58;;;;;;;5.22;1.73;;;14.80;54.50;;;;;;4973622;28;20552;-38
2021/04/18 02:54:24;;;;;;;3.78;1.50;;;14.70;56.20;;;;;;4973279;28;20055;-40
2021/04/18 02:56:49;;;;;;;2.47;1.40;;;15.20;56.40;;;;;;4973213;28;20049;-40
2021/04/18 02:59:15;;;;;;;4.53;1.83;;;14.70;56.00;;;;;;4973279;28;20029;-40
2021/04/18 03:01:41;;;;;;;3.00;1.38;;;14.70;56.10;;;;;;4973240;28;20054;-41
2021/04/18 03:04:07;;;;;;;3.88;1.65;;;14.70;56.10;;;;;;4973171;28;20021;-41
2021/04/18 03:06:33;;;;;;;2.10;1.42;;;14.70;56.10;;;;;;4973477;28;20037;-40
2021/04/18 03:08:59;;;;;;;1.67;1.00;;;14.70;56.00;;;;;;4973433;28;20114;-40
2021/04/18 03:11:25;;;;;;;2.58;1.35;;;14.70;56.00;;;;;;4973395;28;20447;-40
2021/04/18 03:13:51;;;;;;;3.20;1.35;;;14.60;55.90;;;;;;4972987;28;20552;-40
2021/04/18 03:16:16;;;;;;;4.03;1.50;;;14.60;56.00;;;;;;4973260;28;20058;-40
2021/04/18 03:18:42;;;;;;;3.80;1.48;;;14.60;55.90;;;;;;4973358;28;20049;-40
2021/04/18 03:21:08;;;;;;;2.95;1.50;;;14.60;55.90;;;;;;4973334;28;20490;-40
2021/04/18 03:23:34;;;;;;;3.63;1.42;;;14.60;56.00;;;;;;4973327;28;20038;-40
2021/04/18 03:25:59;;;;;;;2.58;1.00;;;14.60;56.00;;;;;;4973015;28;20066;-40
2021/04/18 03:28:25;;;;;;;2.33;1.48;;;14.70;56.00;;;;;;4973072;28;20061;-40
2021/04/18 03:30:51;;;;;;;3.38;1.50;;;14.60;55.90;;;;;;4973339;28;20023;-40
2021/04/18 03:33:17;;;;;;;3.13;1.35;;;14.60;55.90;;;;;;4972975;28;20030;-40
2021/04/18 03:35:43;;;;;;;3.35;1.60;;;14.60;55.90;;;;;;4973983;28;20105;-40
2021/04/18 03:38:09;;;;;;;2.28;1.13;;;14.60;56.10;;;;;;4976660;28;20031;-40
2021/04/18 03:40:36;;;;;;;2.53;1.38;;;14.60;55.90;;;;;;4976724;28;20027;-40
2021/04/18 03:43:02;;;;;;;3.60;1.38;;;14.60;56.00;;;;;;4977038;28;20030;-40
2021/04/18 03:45:27;;;;;;;3.20;1.52;;;14.70;56.00;;;;;;4976898;28;20107;-40
2021/04/18 03:47:53;;;;;;;3.10;1.52;;;14.60;56.00;;;;;;4976908;28;20034;-40
2021/04/18 03:50:18;;;;;;;3.67;1.40;;;14.60;56.10;;;;;;4976639;28;20418;-40
2021/04/18 03:52:44;;;;;;;2.85;1.55;;;14.60;56.10;;;;;;4976862;28;20026;-40
2021/04/18 03:55:11;;;;;;;2.47;1.30;;;14.60;56.10;;;;;;4976770;28;20027;-40
2021/04/18 03:57:36;;;;;;;4.22;1.75;;;14.60;55.90;;;;;;4976581;28;20042;-40
2021/04/18 04:00:05;;;;;;;2.05;1.38;;;14.60;56.10;;;;;;4976654;28;20031;-40
2021/04/18 04:02:31;;;;;;;5.18;1.63;;;14.60;56.00;;;;;;4976321;28;20482;-40
2021/04/18 04:04:56;;;;;;;4.22;1.65;;;14.50;56.10;;;;;;4976548;28;20093;-40
2021/04/18 04:07:22;;;;;;;3.17;1.63;;;14.50;56.20;;;;;;4976591;28;20526;-40
2021/04/18 04:09:47;;;;;;;5.82;1.50;;;15.30;56.60;;;;;;4976239;28;20027;-40
2021/04/18 04:12:13;;;;;;;3.38;1.48;;;14.50;56.20;;;;;;4976498;28;20027;-41
2021/04/18 04:14:39;;;;;;;4.07;1.77;;;14.50;56.20;;;;;;4976045;28;20070;-40
2021/04/18 04:17:05;;;;;;;2.20;1.42;;;14.50;56.10;;;;;;4976256;28;20126;-40
2021/04/18 04:19:30;;;;;;;3.22;1.58;;;14.50;56.20;;;;;;4976071;28;20026;-40
2021/04/18 04:21:56;;;;;;;4.25;1.55;;;14.50;56.20;;;;;;4976271;28;20023;-40
2021/04/18 04:24:21;;;;;;;1.95;1.30;;;14.40;56.20;;;;;;4976220;28;20454;-40
2021/04/18 04:26:47;;;;;;;3.85;1.73;;;14.50;56.20;;;;;;4976178;28;20045;-40
2021/04/18 04:29:12;;;;;;;6.05;1.95;;;14.40;56.20;;;;;;4976138;28;20479;-40
2021/04/18 04:31:38;;;;;;;2.78;1.50;;;14.40;56.10;;;;;;4976102;28;20119;-40
2021/04/18 04:34:04;;;;;;;2.72;1.45;;;14.40;56.20;;;;;;4976079;28;20019;-43
2021/04/18 04:36:29;;;;;;;2.60;1.20;;;14.50;56.30;;;;;;4975614;28;20493;-41
2021/04/18 04:38:55;;;;;;;3.15;1.42;;;14.50;84.10;;;;;;4975857;28;20077;-40
2021/04/18 04:41:21;;;;;;;4.35;1.67;;;14.40;56.20;;;;;;4975880;28;20073;-41
2021/04/18 04:43:47;;;;;;;3.03;1.80;;;14.40;56.20;;;;;;4975870;28;20041;-39
2021/04/18 04:46:13;;;;;;;5.53;1.63;;;14.40;56.10;;;;;;4975553;28;20486;-40
2021/04/18 04:48:39;;;;;;;3.28;1.60;;;14.30;56.20;;;;;;4974984;28;20029;-40
2021/04/18 04:51:04;;;;;;;4.30;1.85;;;14.40;56.30;;;;;;4975736;28;20077;-40
2021/04/18 04:53:30;;;;;;;2.92;1.75;;;14.50;56.40;;;;;;4975634;28;20034;-41
2021/04/18 04:55:56;;;;;;;2.67;1.40;;;14.30;56.10;;;;;;4958035;28;20022;-38
2021/04/18 04:58:21;;;;;;;2.40;1.35;;;14.40;56.80;;;;;;4975418;28;20127;-40
2021/04/18 05:00:47;;;;;;;3.22;1.85;;;14.20;56.10;;;;;;4958009;28;20026;-40
2021/04/18 05:03:12;;;;;;;2.65;1.55;;;14.40;56.40;;;;;;4975212;28;20045;-40
2021/04/18 05:05:38;;;;;;;4.13;1.75;;;14.40;56.30;;;;;;4975430;28;20031;-40
2021/04/18 05:08:04;;;;;;;3.05;1.75;;;14.40;56.50;;;;;;4975403;28;20027;-40
2021/04/18 05:10:30;;;;;;;2.33;1.60;;;14.40;56.20;;;;;;4975375;28;20041;-40
2021/04/18 05:12:55;;;;;;;5.13;1.33;;;14.50;56.40;;;;;;4975111;28;20028;-41
2021/04/18 05:15:22;;;;;;;3.17;1.60;;;15.10;56.70;;;;;;4975026;28;20467;-40
2021/04/18 05:17:49;;;;;;;3.55;1.80;;;14.40;56.40;;;;;;4974873;28;20085;-40
2021/04/18 05:20:16;;;;;;;3.97;2.00;;;14.40;56.40;;;;;;4957608;28;20070;-40
2021/04/18 05:22:42;;;;;;;5.90;1.75;;;14.40;56.10;;;;;;4975113;28;20056;-40
2021/04/18 05:25:08;;;;;;;2.83;1.50;;;14.30;56.30;;;;;;4975102;28;20055;-40
2021/04/18 05:27:34;;;;;;;3.13;1.50;;;14.40;56.10;;;;;;4974954;28;20023;-40
2021/04/18 05:29:59;;;;;;;4.25;1.38;;;14.40;56.40;;;;;;4974765;28;20552;-40
2021/04/18 05:32:25;;;;;;;2.53;1.60;;;14.70;56.60;;;;;;4974872;28;20470;-40
2021/04/18 05:34:50;;;;;;;5.07;1.92;;;14.30;56.40;;;;;;4974871;28;20154;-40
2021/04/18 05:37:16;;;;;;;3.15;1.85;;;14.40;56.40;;;;;;4974711;28;20027;-40
2021/04/18 05:39:42;;;;;;;2.33;1.15;;;14.30;56.40;;;;;;4974735;28;20101;-40
2021/04/18 05:42:08;;;;;;;3.50;1.73;;;14.40;56.50;;;;;;4974745;28;20019;-40
2021/04/18 05:44:35;;;;;;;2.13;1.40;;;14.40;56.50;;;;;;4974575;28;20122;-40
2021/04/18 05:47:01;;;;;;;2.97;1.20;;;14.30;56.50;;;;;;4974692;28;20062;-40
2021/04/18 05:49:26;;;;;;;3.42;1.38;;;15.10;56.80;;;;;;4974630;28;20058;-40
2021/04/18 05:51:52;;;;;;;3.78;1.48;;;14.10;56.70;;;;;;4974530;28;20030;-39
2021/04/18 05:54:17;;;;;;;2.92;1.60;;;15.20;58.10;;;;;;4974513;28;20019;-39
2021/04/18 05:56:43;;;;;;;3.00;1.52;;;14.50;57.10;;;;;;4974372;28;20139;-40
2021/04/18 05:59:08;;;;;;;2.65;1.30;;;14.50;57.30;;;;;;4973490;28;20038;-40
2021/04/18 06:01:34;;;;;;;3.17;1.40;;;14.50;57.20;;;;;;4974321;28;20106;-40
2021/04/18 06:04:00;;;;;;;1.75;1.10;;;14.50;57.20;;;;;;4974320;28;20027;-40
2021/04/18 06:06:26;;;;;;;2.33;1.13;;;14.60;57.40;;;;;;4974023;28;20015;-40
2021/04/18 06:08:53;;;;;;;4.63;1.50;;;14.80;57.60;;;;;;4974221;28;20033;-47
2021/04/18 06:11:19;;;;;;;4.07;1.77;;;15.00;57.70;;;;;;4974094;28;20026;-40
2021/04/18 06:13:45;;;;;;;3.47;1.42;;;14.60;57.50;;;;;;4973808;28;20046;-42
2021/04/18 06:16:11;;;;;;;3.95;1.52;;;14.90;57.70;;;;;;4974080;28;20518;-41
2021/04/18 06:18:37;;;;;;;2.55;1.02;;;14.60;57.50;;;;;;4974058;28;20074;-40
2021/04/18 06:21:04;;;;;;;2.85;1.02;;;14.60;57.50;;;;;;4973963;28;20015;-38
2021/04/18 06:23:31;;;;;;;4.50;1.80;;;;;;;;;;4973663;28;20019;-40
2021/04/18 06:25:56;;;;;;;3.20;1.75;;;14.60;55.30;;;;;;4973953;28;20442;-38
2021/04/18 06:28:22;;;;;;;3.35;1.80;;;14.60;57.50;;;;;;4973876;28;20094;-39
2021/04/18 06:30:48;;;;;;;2.95;1.23;;;14.50;57.40;;;;;;4973982;28;20496;-40
2021/04/18 06:33:14;;;;;;;2.55;1.50;;;14.60;57.40;;;;;;4973652;28;20031;-40
2021/04/18 06:35:39;;;;;;;3.38;1.50;;;14.50;57.40;;;;;;4973845;28;20042;-41
2021/04/18 06:38:05;;;;;;;2.72;1.60;;;14.60;57.50;;;;;;4973713;28;20034;-39
2021/04/18 06:40:31;;;;;;;4.20;1.77;;;14.80;57.50;;;;;;4973396;28;20023;-39
2021/04/18 06:42:58;;;;;;;5.00;1.80;;;15.30;57.70;;;;;;4973728;28;20023;-40
2021/04/18 06:45:24;;;;;;;4.50;1.75;;;14.60;57.40;;;;;;4973674;28;20023;-40
2021/04/18 06:47:51;;;;;;;4.53;1.58;;;14.50;57.30;;;;;;4973288;28;20039;-40
2021/04/18 06:50:17;;;;;;;5.07;1.80;;;14.50;57.30;;;;;;4973593;28;20350;-40
2021/04/18 06:52:43;;;;;;;3.03;1.35;;;14.50;57.50;;;;;;4973263;28;20114;-41
2021/04/18 06:55:10;;;;;;;2.35;1.15;;;14.50;57.60;;;;;;4973618;28;20050;-40
2021/04/18 06:57:36;;;;;;;3.78;1.20;;;14.60;56.90;;;;;;4973263;28;20027;-39
2021/04/18 07:00:05;;;;;;;4.00;1.45;;;14.50;57.30;;;;;;4973334;28;20019;-38
2021/04/18 07:02:32;;;;;;;2.15;1.67;;;14.60;56.60;;;;;;4973195;28;20027;-41
2021/04/18 07:05:07;;;;;;;2.25;0.93;;;14.60;58.00;;;;;;4955888;28;20022;-40
2021/04/18 07:07:41;;;;;;;2.75;1.15;;;14.60;55.70;;;;;;4973565;28;20034;-38
2021/04/18 07:10:12;;;;;;;1.63;1.13;;;14.60;55.60;;;;;;4973174;28;20039;-39
2021/04/18 07:12:38;;;;;;;2.38;1.33;;;14.60;57.00;;;;;;4973531;28;20385;-39
2021/04/18 07:15:05;;;;;;;2.63;1.40;;;14.60;57.40;;;;;;4972929;28;20038;-40
2021/04/18 07:17:30;;;;;;;5.55;1.65;;;14.60;56.90;;;;;;4972982;28;20031;-40
2021/04/18 07:20:17;;;;;;;3.30;1.40;;;14.60;57.70;;;;;;4973047;28;20026;-40
2021/04/18 07:22:43;;;;;;;2.25;1.20;;;15.40;58.30;;;;;;4973309;28;20062;-40
2021/04/18 07:25:09;;;;;;;1.90;1.10;;;14.70;57.80;;;;;;4972987;28;20453;-40
2021/04/18 07:27:52;;;;;;;3.25;1.42;;;14.70;57.80;;;;;;4973235;28;20038;-40
2021/04/18 07:30:23;;;;;;;2.88;1.90;;;14.70;57.90;;;;;;4973040;28;20018;-40
2021/04/18 07:33:03;;;;;;;2.40;1.17;;;14.70;55.60;;;;;;4973283;28;20038;-40
2021/04/18 07:35:33;;;;;;;2.35;1.08;;;14.80;58.00;;;;;;4972830;28;20632;-40
2021/04/18 07:38:25;;;;;;;2.00;1.20;;;14.80;55.70;;;;;;4972906;28;20498;-40
2021/04/18 07:40:53;;;;;;;2.97;1.52;;;14.80;55.70;;;;;;4972845;28;20467;-40
2021/04/18 07:43:20;;;;;;;2.97;1.30;;;14.90;58.70;;;;;;4973218;28;20034;-40
2021/04/18 07:45:48;;;;;;;1.95;1.10;;;14.90;58.80;;;;;;4972891;28;20509;-40
2021/04/18 07:48:16;;;;;;;2.80;1.27;;;14.90;58.60;;;;;;4972780;28;20054;-40
2021/04/18 07:50:44;;;;;;;1.20;1.10;;;14.90;58.70;;;;;;4972712;28;20118;-40
2021/04/18 07:53:10;;;;;;;1.75;1.10;;;14.90;58.50;;;;;;4973103;28;20141;-40
2021/04/18 07:55:36;;;;;;;3.33;1.25;;;15.00;58.70;;;;;;4973056;28;20097;-40
2021/04/18 07:58:03;;;;;;;3.28;1.20;;;15.20;58.80;;;;;;4972949;28;20062;-40
2021/04/18 08:00:29;;;;;;;2.60;0.98;;;15.60;58.90;;;;;;4972976;28;20023;-40
2021/04/18 08:02:55;;;;;;;2.28;1.30;;;15.00;58.70;;;;;;4972711;28;20118;-40
2021/04/18 08:05:24;;;;;;;2.75;1.30;;;15.90;58.40;;;;;;4973008;28;20019;-40
2021/04/18 08:08:02;;;;;;;2.50;1.35;;;15.30;60.00;;;;;;4972986;28;20057;-40
2021/04/18 08:10:39;;;;;;;2.90;1.65;;;16.20;60.20;;;;;;4972900;28;20106;-40
2021/04/18 08:13:07;;;;;;;2.40;1.05;;;15.90;60.20;;;;;;4972626;28;20030;-40
2021/04/18 08:15:34;;;;;;;3.03;1.20;;;15.70;59.60;;;;;;4972970;28;20027;-40
2021/04/18 08:18:06;;;;;;;2.30;1.23;;;15.80;60.00;;;;;;4972815;28;20082;-40
2021/04/18 08:20:34;;;;;;;1.70;0.98;;;16.10;60.20;;;;;;4972617;28;20026;-40
2021/04/18 08:23:05;;;;;;;2.38;0.90;;;16.40;60.10;;;;;;4956355;28;20030;-40
2021/04/18 08:25:35;;;;;;;1.75;1.15;;;16.10;55.50;;;;;;4975912;28;20450;-40
2021/04/18 08:28:01;;;;;;;1.50;0.80;;;16.60;59.70;;;;;;4976032;28;20478;-40
2021/04/18 08:30:28;;;;;;;1.85;1.00;;;16.30;58.50;;;;;;4975731;28;20031;-40
2021/04/18 08:32:55;;;;;;;1.75;0.95;;;16.60;59.70;;;;;;4975880;28;20450;-40
2021/04/18 08:35:24;;;;;;;2.08;0.98;;;16.60;59.50;;;;;;4975885;28;20490;-38
2021/04/18 08:38:12;;;;;;;2.23;1.00;;;17.00;59.70;;;;;;4976012;28;20460;-40
2021/04/18 08:40:38;;;;;;;1.50;1.00;;;16.60;55.60;;;;;;4975992;28;20574;-40
2021/04/18 08:43:21;;;;;;;1.98;0.85;;;17.20;59.30;;;;;;4975899;28;20039;-40
2021/04/18 08:45:48;;;;;;;3.80;1.25;;;16.60;55.50;;;;;;4975964;28;20050;-40
2021/04/18 08:48:14;;;;;;;1.02;0.80;;;16.80;59.50;;;;;;4975797;28;20023;-40
2021/04/18 08:50:52;;;;;;;2.13;1.17;;;16.80;59.30;;;;;;4975860;28;20035;-40
2021/04/18 08:53:17;;;;;;;3.38;1.10;;;16.80;59.50;;;;;;4975777;28;20030;-40
2021/04/18 08:56:02;;;;;;;1.38;0.93;;;16.80;59.50;;;;;;4975756;28;20089;-40
2021/04/18 08:58:38;;;;;;;2.92;1.20;;;16.80;59.40;;;;;;4975290;28;20027;-41
2021/04/18 09:01:06;;;;;;;3.33;1.10;;;16.80;60.00;;;;;;4975264;28;20035;-40
2021/04/18 09:03:31;;;;;;;3.53;1.13;;;16.90;60.00;;;;;;4975222;28;20058;-40
2021/04/18 09:06:26;;;;;;;2.47;1.13;;;17.00;59.90;;;;;;4975472;28;20050;-40
2021/04/18 09:08:52;;;;;;;1.45;0.88;;;16.60;56.50;;;;;;4975561;28;20038;-40
2021/04/18 09:11:18;;;;;;;2.08;0.95;;;17.00;59.80;;;;;;4975321;28;20046;-40
2021/04/18 09:13:58;;;;;;;2.30;1.20;;;17.00;59.80;;;;;;4974863;28;20043;-40
2021/04/18 09:16:31;;;;;;;1.33;0.83;;;16.90;55.70;;;;;;4975033;28;20035;-40
2021/04/18 09:19:29;;;;;;;2.00;1.13;;;16.90;56.30;;;;;;4975255;28;20031;-40
2021/04/18 09:22:06;;;;;;;3.45;1.00;;;16.80;55.80;;;;;;4974929;28;20038;-40
2021/04/18 09:24:37;;;;;;;1.88;1.10;;;17.00;55.40;;;;;;4975144;28;20106;-40
2021/04/18 09:27:09;;;;;;;2.28;1.02;;;16.80;55.20;;;;;;4975067;28;20031;-40
2021/04/18 09:29:44;;;;;;;2.40;1.02;;;16.90;59.40;;;;;;4974804;28;20038;-40
2021/04/18 09:32:12;;;;;;;1.20;1.00;;;17.10;59.40;;;;;;4974753;28;20022;-40
2021/04/18 09:34:39;;;;;;;3.13;1.40;;;17.20;59.30;;;;;;4974346;28;20382;-39
2021/04/18 09:37:09;;;;;;;2.90;1.27;;;17.40;59.30;;;;;;4974806;28;20035;-39
2021/04/18 09:39:36;;;;;;;2.28;1.15;;;17.20;59.20;;;;;;4974423;28;20804;-39
2021/04/18 09:42:05;;;;;;;1.67;0.90;;;17.30;59.20;;;;;;4974452;28;20493;-39
2021/04/18 09:44:43;;;;;;;1.95;1.20;;;17.20;58.30;;;;;;4974531;28;20392;-39
2021/04/18 09:47:24;;;;;;;3.42;1.05;;;17.30;59.10;;;;;;4974735;28;20042;-39
2021/04/18 09:49:52;;;;;;;1.67;1.10;;;17.30;54.80;;;;;;4974699;28;20167;-39
2021/04/18 09:52:26;;;;;;;3.75;1.25;;;17.50;58.70;;;;;;4974583;28;20385;-39
2021/04/18 09:54:52;;;;;;;1.98;0.95;;;17.40;58.80;;;;;;4974222;28;20478;-39
2021/04/18 09:57:23;;;;;;;3.22;1.08;;;17.50;58.70;;;;;;4974128;28;20031;-40
2021/04/18 10:00:24;;;;;;;;;;;17.40;54.30;;;;;;4974716;28;20019;-38
2021/04/18 10:03:02;;;;;;;1.95;0.90;;;17.40;54.30;;;;;;4895562;29;20550;-40
2021/04/18 10:05:31;;;;;;;1.75;1.10;;;17.50;54.40;;;;;;4964620;28;20035;-38
2021/04/18 10:08:18;;;;;;;1.05;0.93;;;17.30;58.20;;;;;;4974432;28;20027;-39
2021/04/18 10:10:52;;;;;;;2.03;0.95;;;17.50;54.40;;;;;;4973880;28;20057;-40
2021/04/18 10:13:37;;;;;;;1.88;0.80;;;17.60;54.70;;;;;;4974078;28;20397;-39
2021/04/18 10:16:06;;;;;;;2.22;1.00;;;17.70;58.30;;;;;;4974308;28;20184;-39
2021/04/18 10:18:33;;;;;;;0.97;0.70;;;17.70;57.60;;;;;;4974224;28;20034;-39
2021/04/18 10:21:21;;;;;;;2.33;0.95;;;17.80;58.00;;;;;;4974164;28;20314;-40
2021/04/18 10:23:48;;;;;;;1.15;0.88;;;17.80;54.20;;;;;;4974051;28;20030;-40
2021/04/18 10:26:18;;;;;;;1.00;0.88;;;18.20;58.60;;;;;;4956681;28;20026;-40
2021/04/18 10:28:43;;;;;;;1.77;0.98;;;17.80;57.80;;;;;;4973973;28;20101;-38
2021/04/18 10:31:14;;;;;;;1.90;1.00;;;18.00;57.70;;;;;;4973988;28;20018;-41
2021/04/18 10:33:40;;;;;;;2.67;0.98;;;17.80;53.60;;;;;;4940856;28;20494;-40
2021/04/18 10:36:07;;;;;;;1.58;1.00;;;18.60;57.60;;;;;;4973542;28;20033;-40
2021/04/18 10:38:32;;;;;;;2.72;1.13;;;17.90;56.80;;;;;;4973656;28;20031;-41
2021/04/18 10:40:58;;;;;;;2.45;1.13;;;18.00;57.10;;;;;;4973784;28;20033;-40
2021/04/18 10:43:23;;;;;;;2.78;1.05;;;18.10;57.10;;;;;;4973735;28;20034;-41
2021/04/18 10:45:49;;;;;;;2.63;0.90;;;18.10;57.10;;;;;;4973061;28;20054;-41
2021/04/18 10:48:15;;;;;;;3.25;1.23;;;18.20;57.10;;;;;;4973386;28;20023;-40
2021/04/18 10:50:40;;;;;;;1.10;0.63;;;18.10;56.50;;;;;;4973659;28;20042;-41
2021/04/18 10:53:06;;;;;;;1.05;0.60;;;18.20;56.80;;;;;;4973583;28;20425;-39
2021/04/18 10:55:32;;;;;;;1.17;0.60;;;18.60;56.90;;;;;;4956237;28;20030;-40
2021/04/18 10:57:57;;;;;;;1.48;0.98;;;18.20;56.70;;;;;;4973449;28;20042;-40
2021/04/18 11:00:23;;;;;;;3.17;1.20;;;18.20;56.70;;;;;;4973473;28;20030;-41
2021/04/18 11:02:49;;;;;;;1.52;1.05;;;18.60;56.70;;;;;;4973246;28;20106;-41
2021/04/18 11:05:14;;;;;;;0.73;0.68;;;18.40;56.60;;;;;;4973451;28;20019;-41
2021/04/18 11:07:40;;;;;;;1.40;0.80;;;18.20;56.10;;;;;;4973455;28;20490;-40
2021/04/18 11:10:07;;;;;;;2.20;0.80;;;18.30;56.30;;;;;;4973478;28;20034;-40
2021/04/18 11:12:33;;;;;;;1.77;0.80;;;18.20;54.90;;;;;;4973289;28;20049;-41
2021/04/18 11:14:59;;;;;;;2.78;0.90;;;18.40;56.20;;;;;;4972967;28;20043;-41
2021/04/18 11:17:25;;;;;;;1.80;1.13;;;18.40;56.30;;;;;;4973234;28;20031;-41
2021/04/18 11:19:54;;;;;;;1.85;0.85;;;18.40;56.30;;;;;;4973339;28;20030;-40
2021/04/18 11:22:20;;;;;;;1.33;0.65;;;18.50;56.20;;;;;;4973232;28;20023;-40
2021/04/18 11:24:46;;;;;;;2.17;0.90;;;18.40;55.80;;;;;;4973232;28;20439;-41
2021/04/18 11:27:12;;;;;;;1.83;0.90;;;18.40;55.90;;;;;;4972965;28;20062;-41
2021/04/18 11:29:40;;;;;;;1.42;0.80;;;19.40;56.40;;;;;;4939607;28;20039;-40
2021/04/18 11:32:06;;;;;;;1.55;0.70;;;18.90;56.30;;;;;;4973164;28;20381;-40
2021/04/18 11:34:31;;;;;;;1.73;1.00;;;18.40;55.30;;;;;;4972869;28;20023;-40
2021/04/18 11:36:57;;;;;;;1.35;0.80;;;18.60;55.80;;;;;;4973049;28;20034;-40
2021/04/18 11:39:23;;;;;;;1.75;0.90;;;18.60;55.60;;;;;;4973056;28;20500;-40
2021/04/18 11:41:48;;;;;;;1.13;1.00;;;18.70;55.80;;;;;;4973123;28;20597;-40
2021/04/18 11:44:17;;;;;;;0.80;0.70;;;19.10;55.80;;;;;;4973146;28;20051;-39
2021/04/18 11:46:43;;;;;;;1.60;0.95;;;18.90;52.90;;;;;;4973252;28;20496;-40
2021/04/18 11:49:11;;;;;;;1.63;0.95;;;19.10;55.90;;;;;;4972745;28;20504;-40
2021/04/18 11:51:37;;;;;;;3.05;0.90;;;18.60;55.60;;;;;;4973063;28;20031;-41
2021/04/18 11:54:04;;;;;;;2.08;0.77;;;19.30;56.00;;;;;;4972654;28;20030;-40
2021/04/18 11:56:31;;;;;;;1.35;0.73;;;18.50;55.40;;;;;;4973434;28;20046;-41
2021/04/18 11:58:57;;;;;;;1.75;0.80;;;19.40;55.70;;;;;;4976659;28;20085;-41
2021/04/18 12:01:23;;;;;;;1.05;0.70;;;18.90;55.30;;;;;;4976531;28;20106;-40
2021/04/18 12:03:48;;;;;;;0.80;0.75;;;18.90;55.30;;;;;;4976590;28;20026;-41
2021/04/18 12:06:14;;;;;;;1.02;0.80;;;18.80;55.10;;;;;;4976559;28;20051;-40
2021/04/18 12:08:40;;;;;;;1.52;0.60;;;18.90;55.30;;;;;;4976274;28;20505;-40
2021/04/18 12:11:05;;;;;;;0.80;0.68;;;19.30;55.30;;;;;;4976212;28;20043;-40
2021/04/18 12:13:31;;;;;;;2.58;0.73;;;19.20;55.10;;;;;;4976148;28;20031;-40
2021/04/18 12:15:56;;;;;;;1.02;0.77;;;19.30;55.30;;;;;;4976100;28;20027;-41
2021/04/18 12:18:22;;;;;;;0.88;0.80;;;19.40;55.70;;;;;;4976263;28;20125;-40
2021/04/18 12:20:48;;;;;;;0.70;0.40;;;19.10;55.30;;;;;;4975970;28;20011;-40
2021/04/18 12:23:13;;;;;;;1.95;0.55;;;19.30;55.10;;;;;;4975948;28;20023;-40
2021/04/18 12:25:39;;;;;;;0.93;0.60;;;19.20;54.90;;;;;;4976218;28;20027;-40
2021/04/18 12:28:05;;;;;;;1.25;0.63;;;19.30;55.00;;;;;;4975872;28;20029;-40
2021/04/18 12:30:31;;;;;;;2.95;0.95;;;19.60;55.10;;;;;;4976103;28;20106;-40
2021/04/18 12:32:56;;;;;;;1.48;0.70;;;19.20;55.00;;;;;;4976046;28;20027;-40
2021/04/18 12:35:22;;;;;;;2.03;0.70;;;19.40;54.80;;;;;;4975892;28;20406;-40
2021/04/18 12:37:47;;;;;;;1.02;0.70;;;19.40;54.90;;;;;;4975880;28;20482;-40
2021/04/18 12:40:14;;;;;;;2.95;0.60;;;19.40;55.20;;;;;;4975845;28;20023;-41
2021/04/18 12:42:39;;;;;;;3.25;0.90;;;19.30;55.10;;;;;;4975815;28;20058;-41
2021/04/18 12:45:07;;;;;;;0.80;0.65;;;19.40;55.50;;;;;;4975855;28;20481;-41
2021/04/18 12:47:33;;;;;;;2.30;0.93;;;19.50;55.40;;;;;;4975442;28;20068;-41
2021/04/18 12:49:59;;;;;;;2.38;0.80;;;19.80;56.60;;;;;;4975652;28;20065;-41